Arjeplog, Sweden

4:56 PM CET on February 10, 2016 (GMT +0100)
Arvidsjaur | | Change Station
CLOSE
Current Station
Airport
Location: Arvidsjaur Airport,
Elevation: 1243 ft
Nearby Weather Stations

Elev 1243 ft 65.59 °N, 19.28 °E | Updated 6 minutes ago

Light Snow Grains
Light Snow Grains
32 °F
Feels Like 29 °F
N
4
Wind Variable Wind from ESE

Today
High -- | Low -- °F
--% Chance of Precip.
Yesterday
High -- | Low -- °F
Precip. -- in
Pressure 29.18 in
Visibility 2.8 miles
Clouds
Windchill 29 °F
Dew Point 32 °F
Humidity 100%
Rainfall 0.00 in
Snow Depth Not available.
8:14 AM 3:51 PM
Waxing Crescent, 6% visible
METAR ESNX 101550Z 12003KT 4500 -SG VV007 00/M00 Q0988
Pressure 29.18 in
Visibility 2.8 miles
Clouds
Windchill 29 °F
Dew Point 32 °F
Humidity 100%
Rainfall 0.00 in
Snow Depth Not available.
8:14 AM 3:51 PM
Waxing Crescent, 6% visible
METAR ESNX 101550Z 12003KT 4500 -SG VV007 00/M00 Q0988

10-Day Weather Forecast

Almanac

Astronomy

Feb. 10, 2016 Rise Set
Actual Time
Civil Twilight
Nautical Twilight
Astronomical Twilight
Moon
Length of Visible Light
Length of Day
Tomorrow will be .
, % of the Moon is Illuminated

Today's Extremes

Country Highs Country Lows

Community

WunderPhotos

Upload Photos

1,891,863 photos uploaded!

WunderBlog® & News

Nearby

Air Quality

  Air Quality AQ Index Pollutant
Not available.

Snow Depth

Station Depth Elevation

Earthquake Activity

City Distance Mag. Time & Date
Minimum magnitude displayed is 2.5.

Coastal Water Temperatures

Place Temperature

Stations

Nearby Weather Stations

Station Location Temp. Windchill Dew Point Humidity Wind Precip. Elev Updated Type